Time;durP1;ratioP1;P1;durP2;ratioP2;P2;SDS_P1;SDS_P2;PMS_P1;PMS_P2;Temp;Humidity;BMP_temperature;BMP_pressure;BME280_temperature;BME280_humidity;BME280_pressure;Samples;Min_cycle;Max_cycle;Signal;HPM_P1;HPM_P2
2023/03/13 00:00:51;;;;;;;28.00;4.93;;;;;;;-143.48;100.00;118439.88;5079487;28;20483;-76
2023/03/13 00:03:16;;;;;;;30.02;5.60;;;;;;;-143.48;100.00;118439.88;5097573;28;20024;-76
2023/03/13 00:05:42;;;;;;;26.27;5.00;;;;;;;-143.48;100.00;118439.88;5079791;28;20027;-76
2023/03/13 00:08:07;;;;;;;30.60;5.60;;;;;;;-143.48;100.00;118439.88;5079661;28;20027;-76
2023/03/13 00:10:36;;;;;;;20.33;3.88;;;;;;;-143.48;100.00;118439.88;5097819;28;20031;-76
2023/03/13 00:13:01;;;;;;;26.60;5.38;;;;;;;-143.48;100.00;118439.88;5097449;28;20020;-78
2023/03/13 00:15:26;;;;;;;27.20;5.07;;;;;;;-143.48;100.00;118439.88;5078975;28;20356;-76
2023/03/13 00:17:51;;;;;;;25.77;4.85;;;;;;;-143.48;100.00;118439.88;5097058;28;20075;-76
2023/03/13 00:20:17;;;;;;;27.65;4.50;;;;;;;-143.48;100.00;118439.88;5097450;28;20027;-76
2023/03/13 00:22:42;;;;;;;29.02;4.72;;;;;;;-143.48;100.00;118439.88;5096078;28;20036;-76
2023/03/13 00:25:08;;;;;;;25.90;4.75;;;;;;;-143.48;100.00;118439.88;5097489;28;20051;-76
2023/03/13 00:27:33;;;;;;;25.15;4.60;;;;;;;-143.48;100.00;118439.88;5097130;28;20028;-77
2023/03/13 00:29:59;;;;;;;31.33;5.25;;;;;;;-143.48;100.00;118439.88;5096984;28;20077;-76
2023/03/13 00:32:24;;;;;;;29.90;4.97;;;;;;;-143.48;100.00;118439.88;5096839;28;20370;-77
2023/03/13 00:34:49;;;;;;;27.30;4.40;;;;;;;-143.48;100.00;118439.88;5095915;28;20016;-77
2023/03/13 00:37:15;;;;;;;31.45;4.47;;;;;;;-143.48;100.00;118439.88;5097029;28;20036;-77
2023/03/13 00:39:40;;;;;;;20.30;4.28;;;;;;;-143.48;100.00;118439.88;5096832;28;20031;-77
2023/03/13 00:42:05;;;;;;;27.20;5.18;;;;;;;-143.48;100.00;118439.88;5097005;28;20032;-77
2023/03/13 00:44:31;;;;;;;21.23;5.00;;;;;;;-143.48;100.00;118439.88;5096616;28;20115;-77
2023/03/13 00:46:56;;;;;;;31.30;5.22;;;;;;;-143.48;100.00;118439.88;5078802;28;20027;-77
2023/03/13 00:49:21;;;;;;;32.85;5.38;;;;;;;-143.48;100.00;118439.88;5078278;28;20023;-77
2023/03/13 00:51:47;;;;;;;23.20;5.38;;;;;;;-143.48;100.00;118439.88;5096578;28;20109;-77
2023/03/13 00:54:12;;;;;;;19.60;4.97;;;;;;;-143.48;100.00;118439.88;5096718;28;20486;-77
2023/03/13 00:56:37;;;;;;;20.55;4.53;;;;;;;-143.48;100.00;118439.88;5096319;28;20055;-77
2023/03/13 00:59:03;;;;;;;23.48;4.97;;;;;;;-143.48;100.00;118439.88;5095185;28;20048;-77
2023/03/13 01:01:35;;;;;;;23.40;4.85;;;;;;;-143.48;100.00;118439.88;5094938;28;20382;-77
2023/03/13 01:04:08;;;;;;;23.98;4.88;;;;;;;-143.48;100.00;118439.88;5095757;28;20106;-76
2023/03/13 01:06:36;;;;;;;20.05;5.15;;;;;;;-143.48;100.00;118439.88;5096268;28;20028;-77
2023/03/13 01:09:02;;;;;;;19.88;5.30;;;;;;;-143.48;100.00;118439.88;5094471;28;20047;-77
2023/03/13 01:11:30;;;;;;;20.35;5.25;;;;;;;-143.48;100.00;118439.88;5094623;28;20020;-77
2023/03/13 01:14:01;;;;;;;27.80;5.75;;;;;;;-143.48;100.00;118439.88;5094873;28;20110;-77
2023/03/13 01:16:29;;;;;;;16.17;4.78;;;;;;;-143.48;100.00;118439.88;5096094;28;20016;-77
2023/03/13 01:18:58;;;;;;;23.73;5.88;;;;;;;-143.48;100.00;118439.88;5094623;28;20027;-76
2023/03/13 01:21:24;;;;;;;19.58;5.50;;;;;;;-143.48;100.00;118439.88;5096076;28;20020;-77
2023/03/13 01:23:51;;;;;;;23.65;5.20;;;;;;;-143.48;100.00;118439.88;5077319;28;20054;-77
2023/03/13 01:26:18;;;;;;;17.98;5.20;;;;;;;-143.48;100.00;118439.88;5077669;28;20089;-77
2023/03/13 01:28:44;;;;;;;17.48;5.20;;;;;;;-143.48;100.00;118439.88;5095738;28;20024;-78
2023/03/13 01:31:18;;;;;;;18.17;5.20;;;;;;;-143.48;100.00;118439.88;5077749;28;20031;-77
2023/03/13 01:33:45;;;;;;;18.85;4.63;;;;;;;-143.48;100.00;118439.88;5094392;28;20077;-77
2023/03/13 01:36:10;;;;;;;17.38;4.70;;;;;;;-143.48;100.00;118439.88;5096114;28;20032;-77
2023/03/13 01:38:37;;;;;;;16.80;4.72;;;;;;;-143.48;100.00;118439.88;5095693;28;20035;-77
2023/03/13 01:41:03;;;;;;;14.35;4.47;;;;;;;-143.48;100.00;118439.88;5095429;28;20107;-77
2023/03/13 01:43:31;;;;;;;17.33;4.43;;;;;;;-143.48;100.00;118439.88;5095593;28;20020;-78
2023/03/13 01:46:02;;;;;;;16.35;4.45;;;;;;;-143.48;100.00;118439.88;5077354;28;20391;-77
2023/03/13 01:48:53;;;;;;;18.67;3.90;;;;;;;-143.48;100.00;118439.88;5095650;28;20024;-77
2023/03/13 01:51:30;;;;;;;13.30;4.40;;;;;;;-143.48;100.00;118439.88;5095525;28;20558;-77
2023/03/13 01:54:31;;;;;;;15.75;4.75;;;;;;;-143.48;100.00;118439.88;5076928;28;20387;-77
2023/03/13 01:57:16;;;;;;;12.25;4.53;;;;;;;-143.48;100.00;118439.88;5049664;28;20032;-77
2023/03/13 02:00:07;;;;;;;13.95;4.57;;;;;;;-143.48;100.00;118439.88;5094819;28;20044;-77
2023/03/13 02:02:34;;;;;;;16.65;5.07;;;;;;;-143.48;100.00;118439.88;5093843;28;20016;-77
2023/03/13 02:05:02;;;;;;;15.27;5.20;;;;;;;-143.48;100.00;118439.88;5095033;28;20028;-77
2023/03/13 02:07:43;;;;;;;16.95;5.82;;;;;;;-143.48;100.00;118439.88;5094913;28;20028;-77
2023/03/13 02:10:09;;;;;;;13.35;5.38;;;;;;;-143.48;100.00;118439.88;5095042;28;20061;-77
2023/03/13 02:12:38;;;;;;;10.10;5.32;;;;;;;-143.48;100.00;118439.88;5094967;28;20030;-77
2023/03/13 02:15:07;;;;;;;16.83;6.15;;;;;;;-143.48;100.00;118439.88;5094774;28;20016;-77
2023/03/13 02:17:34;;;;;;;12.23;6.05;;;;;;;-143.48;100.00;118439.88;5094707;28;20062;-77
2023/03/13 02:19:59;;;;;;;11.32;6.05;;;;;;;-143.48;100.00;118439.88;5094619;28;20035;-77
2023/03/13 02:23:06;;;;;;;15.85;6.95;;;;;;;-143.48;100.00;118439.88;5094467;28;20467;-75
2023/03/13 02:25:55;;;;;;;15.75;7.03;;;;;;;-143.48;100.00;118439.88;5094755;28;20344;-75
2023/03/13 02:28:33;;;;;;;19.70;7.68;;;;;;;-143.48;100.00;118439.88;5065625;28;20168;-77
2023/03/13 02:30:59;;;;;;;14.45;7.68;;;;;;;-143.48;100.00;118439.88;5094497;28;20016;-77
2023/03/13 02:33:30;;;;;;;17.73;7.80;;;;;;;-143.48;100.00;118439.88;5094750;28;20024;-77
2023/03/13 02:35:58;;;;;;;13.98;8.07;;;;;;;-143.48;100.00;118439.88;5076193;28;20028;-77
2023/03/13 02:38:27;;;;;;;19.73;9.00;;;;;;;-143.48;100.00;118439.88;5094730;28;20329;-75
2023/03/13 02:40:55;;;;;;;19.00;8.40;;;;;;;-143.48;100.00;118439.88;5093874;28;20471;-76
2023/03/13 02:43:32;;;;;;;18.02;8.57;;;;;;;-143.48;100.00;118439.88;5094158;28;20016;-76
2023/03/13 02:46:13;;;;;;;17.35;9.15;;;;;;;-143.48;100.00;118439.88;5093799;28;20032;-76
2023/03/13 02:48:40;;;;;;;18.60;9.77;;;;;;;-143.48;100.00;118439.88;5092767;28;20094;-76
2023/03/13 02:51:30;;;;;;;15.82;9.65;;;;;;;-143.48;100.00;118439.88;5094145;28;20038;-76
2023/03/13 02:53:59;;;;;;;19.05;9.60;;;;;;;-143.48;100.00;118439.88;5093242;28;20028;-76
2023/03/13 02:56:26;;;;;;;20.17;10.25;;;;;;;-143.48;100.00;118439.88;5093917;28;20103;-76
2023/03/13 02:58:51;;;;;;;15.85;9.98;;;;;;;-143.48;100.00;118439.88;5094201;28;20059;-76
2023/03/13 03:01:17;;;;;;;21.70;9.93;;;;;;;-143.48;100.00;118439.88;5094185;28;20032;-76
2023/03/13 03:03:42;;;;;;;15.38;9.70;;;;;;;-143.48;100.00;118439.88;5093923;28;20020;-76
2023/03/13 03:06:08;;;;;;;23.98;9.65;;;;;;;-143.48;100.00;118439.88;5093868;28;20020;-76
2023/03/13 03:08:34;;;;;;;19.75;8.98;;;;;;;-143.48;100.00;118439.88;5093896;28;20024;-76
2023/03/13 03:10:59;;;;;;;13.27;7.75;;;;;;;-143.48;100.00;118439.88;5093701;28;20032;-76
2023/03/13 03:13:25;;;;;;;17.63;8.20;;;;;;;-143.48;100.00;118439.88;5093951;28;20486;-76
2023/03/13 03:15:51;;;;;;;15.13;7.32;;;;;;;-143.48;100.00;118439.88;5092312;28;20093;-76
2023/03/13 03:18:16;;;;;;;21.10;8.30;;;;;;;-143.48;100.00;118439.88;5093672;28;20025;-76
2023/03/13 03:20:41;;;;;;;16.15;7.03;;;;;;;-143.48;100.00;118439.88;5094687;28;20032;-76
2023/03/13 03:23:07;;;;;;;13.40;6.70;;;;;;;-143.48;100.00;118439.88;5075688;28;20455;-76
2023/03/13 03:25:32;;;;;;;14.18;6.93;;;;;;;-143.48;100.00;118439.88;5075645;28;20043;-76
2023/03/13 03:27:57;;;;;;;10.63;6.25;;;;;;;-143.48;100.00;118439.88;5075160;28;20047;-76
2023/03/13 03:30:23;;;;;;;13.32;6.00;;;;;;;-143.48;100.00;118439.88;5093634;28;20020;-76
2023/03/13 03:32:48;;;;;;;14.63;6.90;;;;;;;-143.48;100.00;118439.88;5093691;28;20035;-76
2023/03/13 03:35:13;;;;;;;19.75;7.55;;;;;;;-143.48;100.00;118439.88;5075969;28;20497;-76
2023/03/13 03:37:39;;;;;;;15.15;6.50;;;;;;;-143.48;100.00;118439.88;5093450;28;20035;-76
2023/03/13 03:40:05;;;;;;;10.38;6.00;;;;;;;-143.48;100.00;118439.88;5092119;28;20114;-76
2023/03/13 03:42:31;;;;;;;14.68;6.28;;;;;;;-143.48;100.00;118439.88;5092526;28;20451;-76
2023/03/13 03:44:56;;;;;;;12.05;6.18;;;;;;;-143.48;100.00;118439.88;5092035;28;20021;-76
2023/03/13 03:47:22;;;;;;;12.82;5.95;;;;;;;-143.48;100.00;118439.88;5093504;28;20031;-76
2023/03/13 03:49:47;;;;;;;18.63;6.68;;;;;;;-143.48;100.00;118439.88;5093267;28;20044;-76
2023/03/13 03:52:12;;;;;;;8.90;5.03;;;;;;;-143.48;100.00;118439.88;5093459;28;20460;-76
2023/03/13 03:54:38;;;;;;;13.00;5.97;;;;;;;-143.48;100.00;118439.88;5092430;28;20016;-75
2023/03/13 03:57:03;;;;;;;16.63;5.72;;;;;;;-143.48;100.00;118439.88;5093229;28;20055;-76
2023/03/13 03:59:28;;;;;;;18.08;5.75;;;;;;;-143.48;100.00;118439.88;5093196;28;20136;-76
2023/03/13 04:01:54;;;;;;;14.43;5.15;;;;;;;-143.48;100.00;118439.88;5093798;28;20020;-76
2023/03/13 04:04:19;;;;;;;15.70;5.25;;;;;;;-143.48;100.00;118439.88;5093055;28;20020;-76
2023/03/13 04:06:44;;;;;;;14.82;5.80;;;;;;;-143.48;100.00;118439.88;5092231;28;20024;-76
2023/03/13 04:09:10;;;;;;;11.63;5.13;;;;;;;-143.48;100.00;118439.88;5093453;28;20022;-76
2023/03/13 04:11:35;;;;;;;11.57;4.70;;;;;;;-143.48;100.00;118439.88;5091592;28;20122;-76
2023/03/13 04:14:00;;;;;;;11.38;4.80;;;;;;;-143.48;100.00;118439.88;5093548;28;20091;-76
2023/03/13 04:16:26;;;;;;;15.95;5.10;;;;;;;-143.48;100.00;118439.88;5074930;28;20118;-76
2023/03/13 04:18:51;;;;;;;13.40;4.30;;;;;;;-143.48;100.00;118439.88;5093254;28;20020;-76
2023/03/13 04:21:16;;;;;;;10.00;4.28;;;;;;;-143.48;100.00;118439.88;5093283;28;20027;-76
2023/03/13 04:23:42;;;;;;;12.10;4.38;;;;;;;-143.48;100.00;118439.88;5094377;28;20358;-76
2023/03/13 04:26:07;;;;;;;10.27;4.43;;;;;;;-143.48;100.00;118439.88;5095478;28;20031;-76
2023/03/13 04:28:32;;;;;;;13.43;4.60;;;;;;;-143.48;100.00;118439.88;5078585;28;20390;-76
2023/03/13 04:30:57;;;;;;;9.48;4.50;;;;;;;-143.48;100.00;118439.88;5078429;28;20120;-77
2023/03/13 04:33:24;;;;;;;13.15;4.65;;;;;;;-143.48;100.00;118439.88;5078230;28;20024;-76
2023/03/13 04:35:49;;;;;;;12.05;4.68;;;;;;;-143.48;100.00;118439.88;5095737;28;20090;-76
2023/03/13 04:38:14;;;;;;;11.98;4.85;;;;;;;-143.48;100.00;118439.88;5096655;28;20024;-76
2023/03/13 04:40:42;;;;;;;12.52;4.80;;;;;;;-143.48;100.00;118439.88;5095428;28;20020;-76
2023/03/13 04:43:07;;;;;;;9.82;4.38;;;;;;;-143.48;100.00;118439.88;5095365;28;20076;-76
2023/03/13 04:45:32;;;;;;;11.10;4.57;;;;;;;-143.48;100.00;118439.88;5095023;28;20479;-76
2023/03/13 04:47:58;;;;;;;8.70;4.50;;;;;;;-143.48;100.00;118439.88;5096670;28;20499;-76
2023/03/13 04:50:23;;;;;;;16.67;4.88;;;;;;;-143.48;100.00;118439.88;5096462;28;20047;-76
2023/03/13 04:52:48;;;;;;;12.55;4.70;;;;;;;-143.48;100.00;118439.88;5096663;28;20069;-76
2023/03/13 04:55:14;;;;;;;13.00;4.97;;;;;;;-143.48;100.00;118439.88;5077939;28;20375;-76
2023/03/13 04:57:39;;;;;;;11.05;4.78;;;;;;;-143.48;100.00;118439.88;5096374;28;20079;-76
2023/03/13 05:00:07;;;;;;;9.85;5.15;;;;;;;-143.48;100.00;118439.88;5095984;28;20546;-76
2023/03/13 05:02:32;;;;;;;18.17;5.18;;;;;;;-143.48;100.00;118439.88;5096351;28;20016;-76
2023/03/13 05:04:58;;;;;;;6.55;4.25;;;;;;;-143.48;100.00;118439.88;5096268;28;20481;-76
2023/03/13 05:07:23;;;;;;;8.68;4.30;;;;;;;-143.48;100.00;118439.88;5095968;28;20024;-76
2023/03/13 05:09:48;;;;;;;12.77;4.80;;;;;;;-143.48;100.00;118439.88;5096097;28;20031;-76
2023/03/13 05:12:13;;;;;;;10.23;4.68;;;;;;;-143.48;100.00;118439.88;5094900;28;20043;-76
2023/03/13 05:14:39;;;;;;;8.40;4.30;;;;;;;-143.48;100.00;118439.88;5095955;28;20046;-76
2023/03/13 05:17:04;;;;;;;10.95;4.38;;;;;;;-143.48;100.00;118439.88;5095953;28;20076;-76
2023/03/13 05:19:29;;;;;;;9.90;4.95;;;;;;;-143.48;100.00;118439.88;5077932;28;20384;-76
2023/03/13 05:21:55;;;;;;;9.27;4.22;;;;;;;-143.48;100.00;118439.88;5077734;28;20024;-76
2023/03/13 05:24:20;;;;;;;10.43;4.40;;;;;;;-143.48;100.00;118439.88;5094721;28;20020;-76
2023/03/13 05:26:45;;;;;;;12.15;3.97;;;;;;;-143.48;100.00;118439.88;5095663;28;20462;-76
2023/03/13 05:29:11;;;;;;;14.43;4.40;;;;;;;-143.48;100.00;118439.88;5095602;28;20052;-76
2023/03/13 05:31:36;;;;;;;10.13;3.75;;;;;;;-143.48;100.00;118439.88;5095428;28;20101;-76
2023/03/13 05:34:01;;;;;;;11.52;3.65;;;;;;;-143.48;100.00;118439.88;5094471;28;20024;-76
2023/03/13 05:36:27;;;;;;;14.63;4.43;;;;;;;-143.48;100.00;118439.88;5094135;28;20127;-76
2023/03/13 05:38:52;;;;;;;11.50;3.85;;;;;;;-143.48;100.00;118439.88;5077510;28;20027;-75
2023/03/13 05:41:17;;;;;;;9.68;3.55;;;;;;;-143.48;100.00;118439.88;5095273;28;20077;-76
2023/03/13 05:43:42;;;;;;;8.68;3.88;;;;;;;-143.48;100.00;118439.88;5094271;28;20576;-76
2023/03/13 05:46:08;;;;;;;14.90;3.88;;;;;;;-143.48;100.00;118439.88;5094954;28;20103;-76
2023/03/13 05:48:33;;;;;;;7.32;3.65;;;;;;;-143.48;100.00;118439.88;5077241;28;20023;-76
2023/03/13 05:50:58;;;;;;;15.13;4.03;;;;;;;-143.48;100.00;118439.88;5095252;28;20024;-76
2023/03/13 05:53:24;;;;;;;14.57;3.55;;;;;;;-143.48;100.00;118439.88;5077360;28;20407;-76
2023/03/13 05:55:49;;;;;;;12.90;3.65;;;;;;;-143.48;100.00;118439.88;5095283;28;20023;-76
2023/03/13 05:58:14;;;;;;;16.10;3.60;;;;;;;-143.48;99.84;118439.88;5094839;28;20064;-76
2023/03/13 06:00:40;;;;;;;13.70;3.90;;;;;;;-143.48;99.27;118439.88;5095281;28;20047;-76
2023/03/13 06:03:05;;;;;;;13.32;4.22;;;;;;;-143.48;99.14;118439.88;5093385;28;20047;-76
2023/03/13 06:05:30;;;;;;;9.80;3.60;;;;;;;-143.48;98.87;118439.88;5102935;28;20020;-78
2023/03/13 06:07:56;;;;;;;9.00;3.30;;;;;;;-143.48;98.50;118439.88;5114701;28;20073;-78
2023/03/13 06:10:21;;;;;;;9.43;3.33;;;;;;;-143.48;97.80;118439.88;5093485;28;20016;-78
2023/03/13 06:12:56;;;;;;;14.38;3.40;;;;;;;-143.48;97.48;118439.88;5076779;28;20039;-78
2023/03/13 06:15:22;;;;;;;14.20;3.60;;;;;;;-143.48;96.88;118439.88;5093816;28;20016;-75
2023/03/13 06:17:48;;;;;;;12.75;3.35;;;;;;;-143.48;96.58;118439.88;5110822;28;20058;-77
2023/03/13 06:20:13;;;;;;;8.02;3.22;;;;;;;-143.48;96.91;118439.88;5114700;28;20046;-78
2023/03/13 06:22:40;;;;;;;8.70;2.88;;;;;;;-143.48;96.51;118439.88;5114756;28;20019;-76
2023/03/13 06:25:07;;;;;;;13.52;3.13;;;;;;;-143.48;96.70;118439.88;5096425;28;20023;-77
2023/03/13 06:27:32;;;;;;;10.00;3.45;;;;;;;-143.48;95.97;118439.88;5083069;28;20023;-76
2023/03/13 06:29:58;;;;;;;10.45;3.22;;;;;;;-143.48;96.52;118439.88;5115461;28;20498;-76
2023/03/13 06:32:23;;;;;;;8.95;3.03;;;;;;;-143.48;96.54;118439.88;5098478;28;20016;-78
2023/03/13 06:34:48;;;;;;;9.60;3.47;;;;;;;-143.48;97.13;118439.88;5099469;28;20118;-77
2023/03/13 06:37:14;;;;;;;9.90;3.00;;;;;;;-143.48;97.06;118439.88;5095177;28;20164;-77
2023/03/13 06:39:39;;;;;;;9.30;3.22;;;;;;;-143.48;96.44;118439.88;5076336;28;20024;-77
2023/03/13 06:42:05;;;;;;;11.32;3.00;;;;;;;-143.48;96.62;118439.88;5094747;28;20615;-77
2023/03/13 06:44:30;;;;;;;10.45;3.42;;;;;;;-143.48;96.88;118439.88;5094502;28;20028;-78
2023/03/13 06:46:55;;;;;;;13.45;3.28;;;;;;;-143.48;96.82;118439.88;5094258;28;20500;-77
2023/03/13 06:49:21;;;;;;;7.40;2.85;;;;;;;-143.48;97.28;118439.88;5094088;28;20368;-77
2023/03/13 06:51:46;;;;;;;11.05;3.40;;;;;;;-143.48;97.81;118439.88;5093351;28;20447;-78
2023/03/13 06:54:11;;;;;;;8.70;3.03;;;;;;;-143.48;98.08;118439.88;5093021;28;20020;-77
2023/03/13 06:56:37;;;;;;;11.68;3.33;;;;;;;-143.48;99.10;118439.88;5076870;28;20020;-77
2023/03/13 06:59:02;;;;;;;11.43;3.00;;;;;;;-143.48;100.00;118439.88;5092618;28;20048;-76
2023/03/13 07:01:28;;;;;;;13.85;3.60;;;;;;;-143.48;100.00;118439.88;5092825;28;20070;-77
2023/03/13 07:03:53;;;;;;;11.35;3.28;;;;;;;-143.48;100.00;118439.88;5094181;28;20111;-76
2023/03/13 07:06:18;;;;;;;13.55;4.20;;;;;;;-143.48;100.00;118439.88;5093072;28;20016;-77
2023/03/13 07:08:44;;;;;;;12.73;3.95;;;;;;;-143.48;100.00;118439.88;5075689;28;20073;-77
2023/03/13 07:11:11;;;;;;;17.02;4.30;;;;;;;-143.48;100.00;118439.88;5076257;28;20024;-77
2023/03/13 07:13:37;;;;;;;16.25;4.40;;;;;;;-143.48;100.00;118439.88;5092893;28;20420;-77
2023/03/13 07:16:05;;;;;;;12.02;4.00;;;;;;;-143.48;100.00;118439.88;5093949;28;20114;-77
2023/03/13 07:18:31;;;;;;;11.90;3.92;;;;;;;-143.48;100.00;118439.88;5093733;28;20132;-77
2023/03/13 07:20:59;;;;;;;10.70;3.55;;;;;;;-143.48;100.00;118439.88;5093859;28;20023;-78
2023/03/13 07:23:26;;;;;;;20.48;4.25;;;;;;;-143.48;100.00;118439.88;5094086;28;20035;-77
2023/03/13 07:25:53;;;;;;;11.95;3.80;;;;;;;-143.48;100.00;118439.88;5092785;28;20035;-77
2023/03/13 07:28:19;;;;;;;13.07;3.90;;;;;;;-143.48;100.00;118439.88;5075157;28;20539;-77
2023/03/13 07:30:44;;;;;;;8.85;3.55;;;;;;;-143.48;100.00;118439.88;5075546;28;20024;-77
2023/03/13 07:33:09;;;;;;;9.80;3.95;;;;;;;-143.48;100.00;118439.88;5075200;28;20108;-77
2023/03/13 07:35:34;;;;;;;12.68;3.50;;;;;;;-143.48;100.00;118439.88;5075347;28;20514;-77
2023/03/13 07:38:00;;;;;;;9.38;3.30;;;;;;;-143.48;100.00;118439.88;5075180;28;20115;-77
2023/03/13 07:40:25;;;;;;;14.90;4.13;;;;;;;-143.48;100.00;118439.88;5076261;28;20028;-77
2023/03/13 07:42:50;;;;;;;14.43;3.65;;;;;;;-143.48;100.00;118439.88;5075753;28;20092;-77
2023/03/13 07:45:16;;;;;;;10.75;4.00;;;;;;;-143.48;100.00;118439.88;5075353;28;20027;-77
2023/03/13 07:47:41;;;;;;;14.50;4.32;;;;;;;-143.48;100.00;118439.88;5093407;28;20020;-77
2023/03/13 07:50:07;;;;;;;12.77;3.95;;;;;;;-143.48;100.00;118439.88;5095487;28;20016;-78
2023/03/13 07:52:32;;;;;;;9.73;3.78;;;;;;;-143.48;100.00;118439.88;5094576;28;20400;-78
2023/03/13 07:54:58;;;;;;;12.13;3.65;;;;;;;-143.48;100.00;118439.88;5075885;28;20027;-77
2023/03/13 07:57:23;;;;;;;10.23;3.22;;;;;;;-143.48;100.00;118439.88;5096130;28;20020;-77
2023/03/13 07:59:49;;;;;;;10.95;3.80;;;;;;;-143.48;100.00;118439.88;5098178;28;20131;-77
2023/03/13 08:02:15;;;;;;;11.27;3.58;;;;;;;-143.48;100.00;118439.88;5096850;28;20118;-77
2023/03/13 08:04:41;;;;;;;11.57;3.70;;;;;;;-143.48;100.00;118439.88;5088784;28;20020;-77
2023/03/13 08:07:10;;;;;;;12.27;3.67;;;;;;;-143.48;100.00;118439.88;5116639;28;20023;-77
2023/03/13 08:09:35;;;;;;;14.52;3.60;;;;;;;-143.48;100.00;118439.88;5115733;28;20028;-77
2023/03/13 08:12:01;;;;;;;11.23;3.53;;;;;;;-143.48;100.00;118439.88;5095799;28;20038;-77
2023/03/13 08:14:26;;;;;;;12.15;3.42;;;;;;;-143.48;100.00;118439.88;5081323;28;20469;-78
2023/03/13 08:16:52;;;;;;;9.80;3.20;;;;;;;-143.48;98.06;118439.88;5101078;28;20028;-78
2023/03/13 08:19:17;;;;;;;12.85;3.65;;;;;;;-143.48;98.83;118439.88;5098352;28;20027;-77
2023/03/13 08:21:42;;;;;;;10.82;3.13;;;;;;;-143.48;99.86;118439.88;5079436;28;20020;-77
2023/03/13 08:24:10;;;;;;;10.82;3.15;;;;;;;-143.48;98.59;118439.88;5079093;28;20024;-77
2023/03/13 08:26:37;;;;;;;13.90;3.33;;;;;;;-143.48;98.69;118439.88;5097206;28;20020;-77
2023/03/13 08:29:05;;;;;;;11.13;2.90;;;;;;;-143.48;98.45;118439.88;5082477;28;20027;-78
2023/03/13 08:31:37;;;;;;;10.18;2.80;;;;;;;-143.48;98.83;118439.88;5097332;28;20069;-76
2023/03/13 08:34:03;;;;;;;8.20;2.80;;;;;;;-143.48;98.93;118439.88;5098095;28;20061;-78
2023/03/13 08:36:34;;;;;;;10.50;3.33;;;;;;;-143.48;99.94;118439.88;5096169;28;20089;-76
2023/03/13 08:39:10;;;;;;;10.20;2.90;;;;;;;-143.48;100.00;118439.88;5096679;28;20024;-78
2023/03/13 08:41:36;;;;;;;7.78;2.70;;;;;;;-143.48;100.00;118439.88;5097197;28;20043;-80
2023/03/13 08:44:03;;;;;;;11.43;2.83;;;;;;;-143.48;100.00;118439.88;5098682;28;20017;-78
2023/03/13 08:46:31;;;;;;;9.15;2.95;;;;;;;-143.48;100.00;118439.88;5080682;28;20378;-78
2023/03/13 08:48:57;;;;;;;10.65;2.90;;;;;;;-143.48;100.00;118439.88;5079531;28;20127;-78
2023/03/13 08:51:26;;;;;;;7.05;2.70;;;;;;;-143.48;100.00;118439.88;5096565;28;20459;-78
2023/03/13 08:53:54;;;;;;;6.80;2.65;;;;;;;-143.48;100.00;118439.88;5086682;28;20061;-78
2023/03/13 08:56:22;;;;;;;8.18;3.30;;;;;;;-143.48;100.00;118439.88;5111478;28;20027;-76
2023/03/13 08:58:56;;;;;;;7.03;2.60;;;;;;;-143.48;98.77;118439.88;5097847;28;20468;-77
2023/03/13 09:01:24;;;;;;;7.85;2.70;;;;;;;-143.48;97.63;118439.88;5085372;28;20028;-79
2023/03/13 09:03:50;;;;;;;11.30;2.58;;;;;;;-143.48;94.98;118439.88;5081910;28;20033;-76
2023/03/13 09:06:15;;;;;;;10.93;2.85;;;;;;;-143.48;89.86;118439.88;5097561;28;20506;-78
2023/03/13 09:08:41;;;;;;;7.13;2.20;;;;;;;-143.48;82.44;118439.88;5098319;28;20056;-78
2023/03/13 09:11:09;;;;;;;6.40;1.98;;;;;;;-143.48;75.82;118439.88;5098751;28;20122;-78
2023/03/13 09:13:38;;;;;;;12.63;2.67;;;;;;;-143.48;75.90;118439.88;5099837;28;20459;-76
2023/03/13 09:16:09;;;;;;;10.05;2.42;;;;;;;-143.48;81.94;118439.88;5099510;28;20060;-77
2023/03/13 09:18:35;;;;;;;7.90;2.05;;;;;;;-143.48;84.27;118439.88;5098271;28;20028;-77
2023/03/13 09:21:02;;;;;;;9.57;2.40;;;;;;;-143.48;85.44;118439.88;5096842;28;20031;-77
2023/03/13 09:23:28;;;;;;;10.75;2.20;;;;;;;-143.48;86.61;118439.88;5079060;28;20024;-77
2023/03/13 09:25:55;;;;;;;8.30;2.28;;;;;;;-143.48;87.57;118439.88;5096731;28;20089;-77
2023/03/13 09:28:21;;;;;;;7.13;2.20;;;;;;;-143.48;87.69;118439.88;5097745;28;20035;-79
2023/03/13 09:30:48;;;;;;;8.68;2.30;;;;;;;-143.48;87.09;118439.88;5078717;28;20030;-80
2023/03/13 09:33:15;;;;;;;10.35;2.60;;;;;;;-143.48;86.53;118439.88;5097326;28;20392;-79
2023/03/13 09:35:40;;;;;;;10.13;2.78;;;;;;;-143.48;86.01;118439.88;5097905;28;20375;-80
2023/03/13 09:38:06;;;;;;;13.68;2.45;;;;;;;-143.48;85.02;118439.88;5101653;28;20028;-79
2023/03/13 09:40:40;;;;;;;13.68;2.20;;;;;;;-143.48;84.53;118439.88;5079502;28;20136;-79
2023/03/13 09:43:21;;;;;;;11.38;2.40;;;;;;;-143.48;84.36;118439.88;5096658;28;20024;-79
2023/03/13 09:45:48;;;;;;;9.52;2.35;;;;;;;-143.48;84.03;118439.88;5095067;28;20032;-80
2023/03/13 09:48:28;;;;;;;12.88;2.67;;;;;;;-143.48;83.46;118439.88;5095742;28;20047;-79
2023/03/13 09:51:15;;;;;;;8.57;2.40;;;;;;;-143.48;83.54;118439.88;5104311;28;20035;-78
2023/03/13 09:54:02;;;;;;;6.57;2.00;;;;;;;-143.48;80.90;118439.88;5079104;28;20016;-80
2023/03/13 09:56:42;;;;;;;7.32;2.20;;;;;;;-143.48;77.22;118439.88;5079964;28;20024;-79
2023/03/13 09:59:17;;;;;;;8.85;2.10;;;;;;;-143.48;80.47;118439.88;5058677;28;1080968;-80
2023/03/13 10:01:43;;;;;;;8.88;2.30;;;;;;;-143.48;81.13;118439.88;5078970;28;20040;-80
2023/03/13 10:04:23;;;;;;;7.22;2.13;;;;;;;-143.48;73.65;118439.88;5097307;28;20054;-78
2023/03/13 10:06:48;;;;;;;8.73;2.20;;;;;;;-143.48;79.36;118439.88;5077938;28;20036;-79
2023/03/13 10:09:27;;;;;;;9.88;2.08;;;;;;;-143.48;79.35;118439.88;5078053;28;20106;-79
2023/03/13 10:12:19;;;;;;;6.20;1.73;;;;;;;-143.48;80.50;118439.88;5098282;28;20050;-79
2023/03/13 10:15:09;;;;;;;7.00;1.85;;;;;;;-143.48;79.82;118439.88;5095997;28;20016;-78
2023/03/13 10:17:37;;;;;;;8.43;2.00;;;;;;;-143.48;79.53;118439.88;5095302;28;20024;-80
2023/03/13 10:20:16;;;;;;;8.20;1.98;;;;;;;-143.48;76.49;118439.88;5094721;28;20118;-78
2023/03/13 10:22:44;;;;;;;8.73;1.90;;;;;;;-143.48;76.17;118439.88;5094868;28;20123;-80
2023/03/13 10:25:25;;;;;;;6.97;1.58;;;;;;;-143.48;75.99;118439.88;5077105;28;20069;-79
2023/03/13 10:27:51;;;;;;;8.13;1.55;;;;;;;-143.48;73.83;118439.88;5095471;28;20116;-79
2023/03/13 10:30:29;;;;;;;5.90;1.67;;;;;;;-143.48;73.55;118439.88;5094988;28;20111;-80
2023/03/13 10:33:18;;;;;;;4.30;1.58;;;;;;;-143.48;71.69;118439.88;5083873;28;20394;-79
2023/03/13 10:38:20;;;;;;;3.95;1.58;;;;;;;-143.48;70.59;118439.88;5073042;28;20052;-34
2023/03/13 10:41:18;;;;;;;8.60;1.70;;;;;;;-143.48;67.74;118439.88;5074105;28;20059;-33
2023/03/13 10:44:04;;;;;;;5.45;1.83;;;;;;;-143.48;65.69;118439.88;5074401;28;20047;-32
2023/03/13 10:46:32;;;;;;;6.97;1.67;;;;;;;-143.48;62.94;118439.88;5073306;28;20032;-33
2023/03/13 10:49:03;;;;;;;7.78;1.83;;;;;;;-143.48;65.77;118439.88;5073707;28;20429;-32
2023/03/13 10:51:37;;;;;;;5.40;1.67;;;;;;;-143.48;66.20;118439.88;5074456;28;20103;-32
2023/03/13 10:54:24;;;;;;;8.68;1.80;;;;;;;-143.48;69.78;118439.88;5073997;28;20455;-33
2023/03/13 10:56:51;;;;;;;6.07;1.58;;;;;;;-143.48;69.02;118439.88;5074061;28;20051;-33
2023/03/13 10:59:21;;;;;;;5.63;1.83;;;;;;;-143.48;65.21;118439.88;5073693;28;20048;-32
2023/03/13 11:01:47;;;;;;;6.80;2.03;;;;;;;-143.48;63.35;118439.88;5073943;28;20073;-32
2023/03/13 11:04:33;;;;;;;6.20;1.77;;;;;;;-143.48;62.47;118439.88;5073661;28;20060;-32
2023/03/13 11:07:24;;;;;;;4.97;1.80;;;;;;;-143.48;60.96;118439.88;5073732;28;20379;-39